Time;durP1;ratioP1;P1;durP2;ratioP2;P2;SDS_P1;SDS_P2;PMS_P1;PMS_P2;Temp;Humidity;BMP_temperature;BMP_pressure;BME280_temperature;BME280_humidity;BME280_pressure;Samples;Min_cycle;Max_cycle;Signal;HPM_P1;HPM_P2
2023/05/26 00:01:18;;;;;;;;;;;;;;;;;;4437868;32;20342;-72
2023/05/26 00:03:48;;;;;;;;;;;;;;;;;;4437948;32;19951;-72
2023/05/26 00:06:13;;;;;;;;;;;;;;;;;;4435879;32;20231;-72
2023/05/26 00:08:39;;;;;;;;;;;;;;;;;;4437251;32;19971;-72
2023/05/26 00:11:04;;;;;;;;;;;;;;;;;;4436169;32;20265;-72
2023/05/26 00:13:30;;;;;;;;;;;;;;;;;;4436157;32;19944;-73
2023/05/26 00:15:55;;;;;;;;;;;;;;;;;;4438138;32;20291;-72
2023/05/26 00:18:20;;;;;;;;;;;;;;;;;;4438085;32;19960;-72
2023/05/26 00:20:45;;;;;;;;;;;;;;;;;;4437787;32;19933;-72
2023/05/26 00:23:10;;;;;;;;;;;;;;;;;;4437711;32;20228;-72
2023/05/26 00:25:35;;;;;;;;;;;;;;;;;;4436021;32;19937;-72
2023/05/26 00:28:01;;;;;;;;;;;;;;;;;;4437305;32;19971;-71
2023/05/26 00:30:26;;;;;;;;;;;;;;;;;;4437013;32;19933;-71
2023/05/26 00:32:51;;;;;;;;;;;;;;;;;;4437025;32;20023;-70
2023/05/26 00:35:16;;;;;;;;;;;;;;;;;;4437335;32;19944;-70
2023/05/26 00:37:42;;;;;;;;;;;;;;;;;;4435868;32;20037;-71
2023/05/26 00:40:08;;;;;;;;;;;;;;;;;;4435792;32;19993;-71
2023/05/26 00:42:33;;;;;;;;;;;;;;;;;;4436409;32;19991;-72
2023/05/26 00:44:58;;;;;;;;;;;;;;;;;;4435395;32;19937;-73
2023/05/26 00:47:23;;;;;;;;;;;;;;;;;;4436020;32;19977;-72
2023/05/26 00:49:48;;;;;;;;;;;;;;;;;;4437266;32;19936;-72
2023/05/26 00:52:13;;;;;;;;;;;;;;;;;;4435480;32;19940;-71
2023/05/26 00:54:38;;;;;;;;;;;;;;;;;;4436990;32;19952;-71
2023/05/26 00:57:04;;;;;;;;;;;;;;;;;;4436055;32;19941;-72
2023/05/26 00:59:29;;;;;;;;;;;;;;;;;;4435264;32;19945;-72
2023/05/26 01:01:54;;;;;;;;;;;;;;;;;;4436796;32;19945;-72
2023/05/26 01:04:21;;;;;;;;;;;;;;;;;;4435508;32;19943;-72
2023/05/26 01:06:46;;;;;;;;;;;;;;;;;;4435382;32;19972;-72
2023/05/26 01:09:11;;;;;;;;;;;;;;;;;;4435870;32;20317;-71
2023/05/26 01:11:37;;;;;;;;;;;;;;;;;;4436320;32;19944;-72
2023/05/26 01:14:02;;;;;;;;;;;;;;;;;;4435078;32;19980;-72
2023/05/26 01:16:28;;;;;;;;;;;;;;;;;;4436750;32;19936;-72
2023/05/26 01:18:54;;;;;;;;;;;;;;;;;;4436544;32;19929;-72
2023/05/26 01:21:21;;;;;;;;;;;;;;;;;;4435022;32;19956;-72
2023/05/26 01:23:47;;;;;;;;;;;;;;;;;;4435343;32;19937;-72
2023/05/26 01:26:12;;;;;;;;;;;;;;;;;;4435333;32;19974;-70
2023/05/26 01:28:37;;;;;;;;;;;;;;;;;;4435965;32;19969;-71
2023/05/26 01:31:02;;;;;;;;;;;;;;;;;;4436525;32;20344;-71
2023/05/26 01:33:27;;;;;;;;;;;;;;;;;;4434749;32;19963;-71
2023/05/26 01:35:52;;;;;;;;;;;;;;;;;;4434941;32;19992;-71
2023/05/26 01:38:17;;;;;;;;;;;;;;;;;;4434968;32;19937;-71
2023/05/26 01:40:42;;;;;;;;;;;;;;;;;;4436191;32;20030;-71
2023/05/26 01:43:07;;;;;;;;;;;;;;;;;;4436657;32;20306;-71
2023/05/26 01:45:33;;;;;;;;;;;;;;;;;;4435112;32;20310;-71
2023/05/26 01:47:58;;;;;;;;;;;;;;;;;;4435803;32;20336;-71
2023/05/26 01:50:23;;;;;;;;;;;;;;;;;;4436414;32;19948;-71
2023/05/26 01:52:48;;;;;;;;;;;;;;;;;;4434920;32;19937;-70
2023/05/26 01:55:13;;;;;;;;;;;;;;;;;;4434618;32;20004;-71
2023/05/26 01:57:38;;;;;;;;;;;;;;;;;;4436441;32;19937;-70
2023/05/26 02:00:03;;;;;;;;;;;;;;;;;;4436161;32;20001;-71
2023/05/26 02:02:28;;;;;;;;;;;;;;;;;;4436730;32;20307;-71
2023/05/26 02:04:54;;;;;;;;;;;;;;;;;;4435257;32;20306;-70
2023/05/26 02:07:19;;;;;;;;;;;;;;;;;;4434463;32;19936;-70
2023/05/26 02:09:45;;;;;;;;;;;;;;;;;;4436123;32;20208;-70
2023/05/26 02:12:10;;;;;;;;;;;;;;;;;;4436431;32;19940;-69
2023/05/26 02:14:35;;;;;;;;;;;;;;;;;;4435710;32;20352;-71
2023/05/26 02:17:00;;;;;;;;;;;;;;;;;;4436090;32;19988;-71
2023/05/26 02:19:26;;;;;;;;;;;;;;;;;;4435863;32;19933;-71
2023/05/26 02:21:51;;;;;;;;;;;;;;;;;;4435081;32;19943;-70
2023/05/26 02:24:16;;;;;;;;;;;;;;;;;;4434491;32;19933;-71
2023/05/26 02:26:41;;;;;;;;;;;;;;;;;;4435979;32;20000;-71
2023/05/26 02:29:06;;;;;;;;;;;;;;;;;;4435674;32;19947;-71
2023/05/26 02:31:33;;;;;;;;;;;;;;;;;;4434306;32;19986;-72
2023/05/26 02:33:58;;;;;;;;;;;;;;;;;;4435399;32;19955;-72
2023/05/26 02:36:23;;;;;;;;;;;;;;;;;;4435817;32;19933;-71
2023/05/26 02:38:48;;;;;;;;;;;;;;;;;;4435853;32;19990;-71
2023/05/26 02:41:13;;;;;;;;;;;;;;;;;;4435814;32;19941;-71
2023/05/26 02:43:38;;;;;;;;;;;;;;;;;;4436029;32;20344;-72
2023/05/26 02:46:04;;;;;;;;;;;;;;;;;;4436165;32;19936;-71
2023/05/26 02:48:29;;;;;;;;;;;;;;;;;;4434621;32;19955;-70
2023/05/26 02:50:55;;;;;;;;;;;;;;;;;;4436195;32;19943;-71
2023/05/26 02:53:20;;;;;;;;;;;;;;;;;;4436979;32;19948;-71
2023/05/26 02:55:45;;;;;;;;;;;;;;;;;;4437677;32;19936;-71
2023/05/26 02:58:12;;;;;;;;;;;;;;;;;;4437905;32;19945;-71
2023/05/26 03:00:37;;;;;;;;;;;;;;;;;;4437440;32;19945;-71
2023/05/26 03:03:02;;;;;;;;;;;;;;;;;;4437177;32;19986;-71
2023/05/26 03:05:27;;;;;;;;;;;;;;;;;;4437396;32;19954;-71
2023/05/26 03:07:52;;;;;;;;;;;;;;;;;;4436014;32;19929;-71
2023/05/26 03:10:17;;;;;;;;;;;;;;;;;;4437625;32;20364;-70
2023/05/26 03:12:42;;;;;;;;;;;;;;;;;;4437474;32;20490;-72
2023/05/26 03:15:08;;;;;;;;;;;;;;;;;;4435849;32;20532;-71
2023/05/26 03:17:33;;;;;;;;;;;;;;;;;;4438183;32;19944;-71
2023/05/26 03:19:58;;;;;;;;;;;;;;;;;;4437126;32;19941;-71
2023/05/26 03:22:23;;;;;;;;;;;;;;;;;;4436126;32;19964;-72
2023/05/26 03:24:48;;;;;;;;;;;;;;;;;;4437652;32;19951;-72
2023/05/26 03:27:13;;;;;;;;;;;;;;;;;;4435910;32;19944;-71
2023/05/26 03:29:39;;;;;;;;;;;;;;;;;;4437158;32;19951;-71
2023/05/26 03:32:04;;;;;;;;;;;;;;;;;;4436887;32;19937;-72
2023/05/26 03:34:29;;;;;;;;;;;;;;;;;;4436869;32;19941;-72
2023/05/26 03:36:54;;;;;;;;;;;;;;;;;;4438552;32;19960;-71
2023/05/26 03:39:21;;;;;;;;;;;;;;;;;;4437172;32;20295;-71
2023/05/26 03:41:46;;;;;;;;;;;;;;;;;;4436474;32;19944;-72
2023/05/26 03:44:12;;;;;;;;;;;;;;;;;;4436926;32;20013;-71
2023/05/26 03:46:37;;;;;;;;;;;;;;;;;;4437744;32;19941;-71
2023/05/26 03:49:02;;;;;;;;;;;;;;;;;;4438493;32;20029;-71
2023/05/26 03:51:27;;;;;;;;;;;;;;;;;;4437213;32;19986;-71
2023/05/26 03:53:52;;;;;;;;;;;;;;;;;;4436485;32;19987;-71
2023/05/26 03:56:17;;;;;;;;;;;;;;;;;;4438139;32;20010;-70
2023/05/26 03:58:43;;;;;;;;;;;;;;;;;;4436711;32;19969;-70
2023/05/26 04:01:08;;;;;;;;;;;;;;;;;;4437535;32;20323;-71
2023/05/26 04:03:33;;;;;;;;;;;;;;;;;;4437059;32;19937;-71
2023/05/26 04:05:59;;;;;;;;;;;;;;;;;;4436878;32;19937;-71
2023/05/26 04:08:25;;;;;;;;;;;;;;;;;;4436617;32;19937;-71
2023/05/26 04:10:50;;;;;;;;;;;;;;;;;;4436489;32;20018;-71
2023/05/26 04:13:15;;;;;;;;;;;;;;;;;;4435805;32;20378;-71
2023/05/26 04:15:40;;;;;;;;;;;;;;;;;;4438575;32;19937;-71
2023/05/26 04:18:05;;;;;;;;;;;;;;;;;;4437381;32;19932;-71
2023/05/26 04:20:30;;;;;;;;;;;;;;;;;;4436174;32;19948;-71
2023/05/26 04:22:55;;;;;;;;;;;;;;;;;;4437308;32;19997;-71
2023/05/26 04:25:21;;;;;;;;;;;;;;;;;;4436824;32;19941;-72
2023/05/26 04:27:47;;;;;;;;;;;;;;;;;;4437184;32;20135;-71
2023/05/26 04:30:12;;;;;;;;;;;;;;;;;;4435755;32;19979;-70
2023/05/26 04:32:37;;;;;;;;;;;;;;;;;;4435732;32;19940;-71
2023/05/26 04:35:03;;;;;;;;;;;;;;;;;;4435892;32;19952;-71
2023/05/26 04:37:33;;;;;;;;;;;;;;;;;;4435947;32;19929;-71
2023/05/26 04:39:58;;;;;;;;;;;;;;;;;;4437270;32;19968;-71
2023/05/26 04:42:23;;;;;;;;;;;;;;;;;;4435944;32;19940;-71
2023/05/26 04:44:48;;;;;;;;;;;;;;;;;;4437311;32;19940;-71
2023/05/26 04:47:13;;;;;;;;;;;;;;;;;;4436146;32;20265;-71
2023/05/26 04:49:38;;;;;;;;;;;;;;;;;;4436905;32;19958;-71
2023/05/26 04:52:04;;;;;;;;;;;;;;;;;;4437808;32;19936;-69
2023/05/26 04:54:30;;;;;;;;;;;;;;;;;;4436791;32;19952;-71
2023/05/26 04:56:55;;;;;;;;;;;;;;;;;;4437205;32;19959;-71
2023/05/26 04:59:23;;;;;;;;;;;;;;;;;;4436558;32;19948;-71
2023/05/26 05:01:48;;;;;;;;;;;;;;;;;;4434947;32;19947;-71
2023/05/26 05:04:13;;;;;;;;;;;;;;;;;;4435886;32;20282;-71
2023/05/26 05:06:39;;;;;;;;;;;;;;;;;;4437317;32;19941;-69
2023/05/26 05:09:04;;;;;;;;;;;;;;;;;;4436045;32;19945;-70
2023/05/26 05:11:29;;;;;;;;;;;;;;;;;;4436528;32;19937;-70
2023/05/26 05:13:55;;;;;;;;;;;;;;;;;;4436042;32;19940;-71
2023/05/26 05:16:20;;;;;;;;;;;;;;;;;;4435193;32;19943;-70
2023/05/26 05:18:45;;;;;;;;;;;;;;;;;;4434633;32;19950;-71
2023/05/26 05:21:10;;;;;;;;;;;;;;;;;;4435680;32;19967;-71
2023/05/26 05:23:35;;;;;;;;;;;;;;;;;;4436284;32;20004;-71
2023/05/26 05:26:01;;;;;;;;;;;;;;;;;;4436140;32;19947;-71
2023/05/26 05:28:26;;;;;;;;;;;;;;;;;;4436913;32;20301;-71
2023/05/26 05:30:51;;;;;;;;;;;;;;;;;;4436341;32;19991;-71
2023/05/26 05:33:16;;;;;;;;;;;;;;;;;;4436874;32;19944;-71
2023/05/26 05:35:41;;;;;;;;;;;;;;;;;;4435109;32;19936;-70
2023/05/26 05:38:07;;;;;;;;;;;;;;;;;;4436220;32;19960;-70
2023/05/26 05:40:32;;;;;;;;;;;;;;;;;;4435263;32;20322;-70
2023/05/26 05:42:57;;;;;;;;;;;;;;;;;;4438233;32;19940;-71
2023/05/26 05:45:22;;;;;;;;;;;;;;;;;;4435456;32;19961;-72
2023/05/26 05:47:47;;;;;;;;;;;;;;;;;;4435462;32;19937;-71
2023/05/26 05:50:13;;;;;;;;;;;;;;;;;;4435218;32;19972;-71
2023/05/26 05:52:38;;;;;;;;;;;;;;;;;;4436181;32;19965;-73
2023/05/26 05:55:03;;;;;;;;;;;;;;;;;;4434462;32;19949;-71
2023/05/26 05:57:28;;;;;;;;;;;;;;;;;;4434725;32;19941;-72
2023/05/26 05:59:53;;;;;;;;;;;;;;;;;;4434661;32;20262;-72
2023/05/26 06:02:18;;;;;;;;;;;;;;;;;;4434463;32;20232;-72
2023/05/26 06:04:43;;;;;;;;;;;;;;;;;;4435747;32;19940;-71
2023/05/26 06:07:09;;;;;;;;;;;;;;;;;;4434622;32;19974;-72
2023/05/26 06:09:34;;;;;;;;;;;;;;;;;;4434563;32;19998;-71
2023/05/26 06:12:00;;;;;;;;;;;;;;;;;;4435648;32;20298;-71
2023/05/26 06:14:25;;;;;;;;;;;;;;;;;;4435020;32;19956;-71
2023/05/26 06:16:50;;;;;;;;;;;;;;;;;;4435039;32;19968;-71
2023/05/26 06:19:15;;;;;;;;;;;;;;;;;;4435516;32;20299;-70
2023/05/26 06:21:40;;;;;;;;;;;;;;;;;;4434193;32;19977;-71
2023/05/26 06:24:05;;;;;;;;;;;;;;;;;;4434381;32;19975;-72
2023/05/26 06:26:30;;;;;;;;;;;;;;;;;;4419348;32;20262;-72
2023/05/26 06:28:56;;;;;;;;;;;;;;;;;;4418459;32;19947;-72
2023/05/26 06:31:21;;;;;;;;;;;;;;;;;;4420241;32;19937;-72
2023/05/26 06:33:46;;;;;;;;;;;;;;;;;;4418585;32;19956;-72
2023/05/26 06:36:11;;;;;;;;;;;;;;;;;;4419183;32;19947;-71
2023/05/26 06:38:36;;;;;;;;;;;;;;;;;;4418982;32;19945;-71
2023/05/26 06:41:01;;;;;;;;;;;;;;;;;;4418537;32;19937;-72
2023/05/26 06:43:26;;;;;;;;;;;;;;;;;;4418736;32;20042;-72
2023/05/26 06:45:52;;;;;;;;;;;;;;;;;;4419106;32;19983;-71
2023/05/26 06:48:17;;;;;;;;;;;;;;;;;;4418474;32;19942;-71
2023/05/26 06:50:42;;;;;;;;;;;;;;;;;;4418968;32;19995;-71
2023/05/26 06:53:07;;;;;;;;;;;;;;;;;;4422507;32;19937;-71
2023/05/26 06:55:32;;;;;;;;;;;;;;;;;;4435867;32;20016;-70
2023/05/26 06:57:57;;;;;;;;;;;;;;;;;;4433364;32;19969;-70
2023/05/26 07:00:22;;;;;;;;;;;;;;;;;;4433333;32;20314;-70
2023/05/26 07:02:47;;;;;;;;;;;;;;;;;;4434713;32;19950;-71
2023/05/26 07:05:14;;;;;;;;;;;;;;;;;;4434125;32;20117;-70
2023/05/26 07:07:39;;;;;;;;;;;;;;;;;;4433923;32;19933;-71
2023/05/26 07:10:04;;;;;;;;;;;;;;;;;;4433920;32;19947;-71
2023/05/26 07:12:29;;;;;;;;;;;;;;;;;;4435839;32;19951;-72
2023/05/26 07:14:54;;;;;;;;;;;;;;;;;;4434181;32;19932;-71
2023/05/26 07:17:19;;;;;;;;;;;;;;;;;;4435459;32;19932;-72
2023/05/26 07:19:45;;;;;;;;;;;;;;;;;;4436029;32;19975;-72
2023/05/26 07:22:10;;;;;;;;;;;;;;;;;;4433669;32;19951;-72
2023/05/26 07:24:35;;;;;;;;;;;;;;;;;;4433590;32;19945;-70
2023/05/26 07:27:00;;;;;;;;;;;;;;;;;;4433873;32;19937;-70
2023/05/26 07:29:25;;;;;;;;;;;;;;;;;;4434286;32;19948;-70
2023/05/26 07:31:50;;;;;;;;;;;;;;;;;;4434852;32;19956;-70
2023/05/26 07:34:15;;;;;;;;;;;;;;;;;;4433833;32;19956;-69
2023/05/26 07:36:41;;;;;;;;;;;;;;;;;;4434105;32;19981;-71
2023/05/26 07:39:06;;;;;;;;;;;;;;;;;;4434875;32;19937;-70
2023/05/26 07:41:31;;;;;;;;;;;;;;;;;;4438442;32;20122;-70
2023/05/26 07:43:57;;;;;;;;;;;;;;;;;;4436515;32;19989;-70
2023/05/26 07:46:22;;;;;;;;;;;;;;;;;;4437813;32;19952;-71
2023/05/26 07:48:48;;;;;;;;;;;;;;;;;;4437416;32;19937;-71
2023/05/26 07:51:13;;;;;;;;;;;;;;;;;;4438048;32;20352;-70
2023/05/26 07:53:38;;;;;;;;;;;;;;;;;;4436043;32;20315;-70
2023/05/26 07:56:03;;;;;;;;;;;;;;;;;;4438079;32;20226;-71
2023/05/26 07:58:28;;;;;;;;;;;;;;;;;;4438345;32;20336;-71
2023/05/26 08:00:53;;;;;;;;;;;;;;;;;;4436343;32;19936;-71
2023/05/26 08:03:19;;;;;;;;;;;;;;;;;;4436878;32;19956;-71
2023/05/26 08:05:44;;;;;;;;;;;;;;;;;;4437316;32;19998;-69
2023/05/26 08:08:09;;;;;;;;;;;;;;;;;;4436419;32;20306;-70
2023/05/26 08:10:34;;;;;;;;;;;;;;;;;;4436494;32;19937;-70
2023/05/26 08:12:59;;;;;;;;;;;;;;;;;;4438031;32;20285;-71
2023/05/26 08:15:24;;;;;;;;;;;;;;;;;;4435645;32;19965;-72
2023/05/26 08:17:49;;;;;;;;;;;;;;;;;;4436324;32;20247;-72
2023/05/26 08:20:15;;;;;;;;;;;;;;;;;;4436381;32;19956;-71
2023/05/26 08:22:40;;;;;;;;;;;;;;;;;;4437179;32;19951;-70
2023/05/26 08:25:05;;;;;;;;;;;;;;;;;;4436172;32;20355;-69
2023/05/26 08:27:30;;;;;;;;;;;;;;;;;;4436224;32;19944;-71
2023/05/26 08:29:55;;;;;;;;;;;;;;;;;;4436672;32;20284;-70
2023/05/26 08:32:20;;;;;;;;;;;;;;;;;;4435938;32;20282;-71
2023/05/26 08:34:45;;;;;;;;;;;;;;;;;;4435834;32;19941;-70
2023/05/26 08:37:14;;;;;;;;;;;;;;;;;;4437091;32;20336;-71
2023/05/26 08:39:39;;;;;;;;;;;;;;;;;;4437261;32;19933;-71
2023/05/26 08:42:05;;;;;;;;;;;;;;;;;;4435684;32;19959;-70
2023/05/26 08:44:30;;;;;;;;;;;;;;;;;;4435861;32;19928;-71
2023/05/26 08:46:57;;;;;;;;;;;;;;;;;;4437766;32;19945;-71
2023/05/26 08:49:22;;;;;;;;;;;;;;;;;;4436035;32;20002;-70
2023/05/26 08:51:47;;;;;;;;;;;;;;;;;;4436723;32;19941;-71
2023/05/26 08:54:12;;;;;;;;;;;;;;;;;;4436773;32;19976;-71
2023/05/26 08:56:37;;;;;;;;;;;;;;;;;;4437587;32;20019;-71
2023/05/26 08:59:02;;;;;;;;;;;;;;;;;;4437031;32;20384;-70
2023/05/26 09:01:28;;;;;;;;;;;;;;;;;;4436532;32;20322;-72
2023/05/26 09:03:53;;;;;;;;;;;;;;;;;;4435519;32;19937;-70
2023/05/26 09:06:18;;;;;;;;;;;;;;;;;;4436677;32;19970;-71
2023/05/26 09:08:43;;;;;;;;;;;;;;;;;;4435298;32;20032;-71
2023/05/26 09:11:08;;;;;;;;;;;;;;;;;;4435287;32;19941;-71
2023/05/26 09:13:33;;;;;;;;;;;;;;;;;;4436879;32;19947;-71
2023/05/26 09:15:58;;;;;;;;;;;;;;;;;;4436558;32;19932;-70
2023/05/26 09:18:24;;;;;;;;;;;;;;;;;;4435131;32;19970;-70
2023/05/26 09:20:49;;;;;;;;;;;;;;;;;;4435008;32;19939;-69
2023/05/26 09:23:14;;;;;;;;;;;;;;;;;;4435292;32;19976;-70
2023/05/26 09:25:40;;;;;;;;;;;;;;;;;;4436598;32;19947;-71
2023/05/26 09:28:05;;;;;;;;;;;;;;;;;;4435096;32;20216;-70
2023/05/26 09:30:31;;;;;;;;;;;;;;;;;;4436376;32;19946;-71
2023/05/26 09:32:56;;;;;;;;;;;;;;;;;;4434923;32;19975;-73
2023/05/26 09:35:21;;;;;;;;;;;;;;;;;;4435130;32;19941;-72
2023/05/26 09:37:46;;;;;;;;;;;;;;;;;;4436267;32;19986;-73
2023/05/26 09:40:12;;;;;;;;;;;;;;;;;;4435053;32;19946;-71
2023/05/26 09:42:37;;;;;;;;;;;;;;;;;;4434452;32;20280;-70
2023/05/26 09:45:03;;;;;;;;;;;;;;;;;;4435315;32;19952;-70
2023/05/26 09:47:28;;;;;;;;;;;;;;;;;;4435910;32;19969;-71
2023/05/26 09:49:53;;;;;;;;;;;;;;;;;;4434749;32;19936;-71
2023/05/26 09:52:18;;;;;;;;;;;;;;;;;;4434584;32;19937;-73
2023/05/26 09:54:43;;;;;;;;;;;;;;;;;;4434915;32;19980;-70
2023/05/26 09:57:10;;;;;;;;;;;;;;;;;;4435366;32;19967;-70
2023/05/26 09:59:38;;;;;;;;;;;;;;;;;;4434539;32;19941;-71
2023/05/26 10:02:03;;;;;;;;;;;;;;;;;;4435416;32;19976;-71
2023/05/26 10:04:28;;;;;;;;;;;;;;;;;;4436137;32;19932;-71
2023/05/26 10:06:53;;;;;;;;;;;;;;;;;;4434631;32;19972;-70
2023/05/26 10:09:18;;;;;;;;;;;;;;;;;;4435460;32;20259;-71
2023/05/26 10:11:43;;;;;;;;;;;;;;;;;;4435307;32;20014;-72
2023/05/26 10:14:09;;;;;;;;;;;;;;;;;;4434625;32;19945;-71
2023/05/26 10:16:34;;;;;;;;;;;;;;;;;;4435435;32;19949;-70
2023/05/26 10:19:00;;;;;;;;;;;;;;;;;;4435765;32;20351;-73
2023/05/26 10:21:25;;;;;;;;;;;;;;;;;;4435343;32;19937;-70
2023/05/26 10:23:50;;;;;;;;;;;;;;;;;;4434116;32;19936;-71
2023/05/26 10:26:15;;;;;;;;;;;;;;;;;;4435328;32;19975;-70
2023/05/26 10:28:40;;;;;;;;;;;;;;;;;;4434687;32;19940;-70
2023/05/26 10:31:05;;;;;;;;;;;;;;;;;;4435935;32;19956;-71
2023/05/26 10:33:31;;;;;;;;;;;;;;;;;;4433564;32;19941;-71
2023/05/26 10:35:56;;;;;;;;;;;;;;;;;;4434983;32;19944;-70
2023/05/26 10:38:21;;;;;;;;;;;;;;;;;;4435252;32;20560;-71
2023/05/26 10:40:46;;;;;;;;;;;;;;;;;;4430924;32;20310;-70
2023/05/26 10:43:11;;;;;;;;;;;;;;;;;;4418832;32;20331;-70
2023/05/26 10:45:36;;;;;;;;;;;;;;;;;;4422854;32;19941;-70
2023/05/26 10:48:02;;;;;;;;;;;;;;;;;;4435685;32;19966;-70
2023/05/26 10:50:27;;;;;;;;;;;;;;;;;;4435290;32;19947;-71
2023/05/26 10:52:52;;;;;;;;;;;;;;;;;;4433961;32;20400;-71
2023/05/26 10:55:17;;;;;;;;;;;;;;;;;;4434117;32;19937;-72
2023/05/26 10:57:42;;;;;;;;;;;;;;;;;;4434410;32;19976;-70
2023/05/26 11:00:08;;;;;;;;;;;;;;;;;;4434596;32;19937;-71
2023/05/26 11:02:35;;;;;;;;;;;;;;;;;;4434647;32;19945;-70
2023/05/26 11:05:00;;;;;;;;;;;;;;;;;;4435518;32;19974;-71
2023/05/26 11:07:29;;;;;;;;;;;;;;;;;;4435231;32;20323;-72
2023/05/26 11:09:56;;;;;;;;;;;;;;;;;;4434090;32;19964;-71
2023/05/26 11:12:21;;;;;;;;;;;;;;;;;;4431717;32;19933;-71
2023/05/26 11:14:46;;;;;;;;;;;;;;;;;;4435986;32;20004;-72
2023/05/26 11:17:11;;;;;;;;;;;;;;;;;;4436790;32;19943;-70
2023/05/26 11:19:37;;;;;;;;;;;;;;;;;;4436863;32;19970;-72
2023/05/26 11:22:02;;;;;;;;;;;;;;;;;;4436722;32;20458;-71
2023/05/26 11:24:27;;;;;;;;;;;;;;;;;;4437291;32;19951;-72
2023/05/26 11:26:52;;;;;;;;;;;;;;;;;;4437698;32;20012;-71
2023/05/26 11:29:17;;;;;;;;;;;;;;;;;;4437529;32;19948;-71
2023/05/26 11:31:42;;;;;;;;;;;;;;;;;;4437095;32;20359;-70
2023/05/26 11:34:07;;;;;;;;;;;;;;;;;;4436697;32;19951;-71
2023/05/26 11:36:32;;;;;;;;;;;;;;;;;;4436290;32;19971;-70
2023/05/26 11:38:58;;;;;;;;;;;;;;;;;;4438568;32;19952;-71
2023/05/26 11:41:26;;;;;;;;;;;;;;;;;;4437196;32;19944;-71
2023/05/26 11:43:53;;;;;;;;;;;;;;;;;;4436559;32;19936;-71
2023/05/26 11:46:18;;;;;;;;;;;;;;;;;;4436202;32;19928;-70
2023/05/26 11:48:43;;;;;;;;;;;;;;;;;;4437026;32;20012;-70
2023/05/26 11:51:08;;;;;;;;;;;;;;;;;;4436600;32;19951;-71
2023/05/26 11:53:33;;;;;;;;;;;;;;;;;;4437507;32;19940;-70
2023/05/26 11:55:58;;;;;;;;;;;;;;;;;;4438161;32;19933;-69
2023/05/26 11:58:24;;;;;;;;;;;;;;;;;;4438702;32;19933;-71
2023/05/26 12:00:49;;;;;;;;;;;;;;;;;;4436465;32;19944;-70
2023/05/26 12:03:14;;;;;;;;;;;;;;;;;;4436234;32;19937;-71
2023/05/26 12:05:39;;;;;;;;;;;;;;;;;;4437650;32;19947;-71
2023/05/26 12:08:04;;;;;;;;;;;;;;;;;;4436497;32;19950;-69
2023/05/26 12:10:30;;;;;;;;;;;;;;;;;;4438034;32;20250;-71
2023/05/26 12:12:55;;;;;;;;;;;;;;;;;;4437565;32;20257;-70
2023/05/26 12:15:20;;;;;;;;;;;;;;;;;;4437368;32;19981;-71
2023/05/26 12:17:46;;;;;;;;;;;;;;;;;;4437024;32;19932;-70
2023/05/26 12:20:11;;;;;;;;;;;;;;;;;;4437357;32;19941;-71
2023/05/26 12:22:37;;;;;;;;;;;;;;;;;;4436613;32;19941;-71
2023/05/26 12:25:02;;;;;;;;;;;;;;;;;;4435174;32;20348;-71
2023/05/26 12:27:27;;;;;;;;;;;;;;;;;;4437302;32;20262;-71
2023/05/26 12:29:52;;;;;;;;;;;;;;;;;;4436616;32;19937;-70
2023/05/26 12:32:17;;;;;;;;;;;;;;;;;;4437985;32;20000;-71
2023/05/26 12:34:43;;;;;;;;;;;;;;;;;;4437577;32;19956;-71
2023/05/26 12:37:08;;;;;;;;;;;;;;;;;;4436120;32;20300;-71
2023/05/26 12:39:34;;;;;;;;;;;;;;;;;;4436264;32;19944;-71
2023/05/26 12:42:01;;;;;;;;;;;;;;;;;;4435741;32;19983;-71
2023/05/26 12:44:26;;;;;;;;;;;;;;;;;;4437203;32;19950;-71
2023/05/26 12:46:51;;;;;;;;;;;;;;;;;;4438130;32;19977;-72
2023/05/26 12:49:17;;;;;;;;;;;;;;;;;;4437574;32;19940;-71
2023/05/26 12:51:42;;;;;;;;;;;;;;;;;;4435460;32;19976;-72
2023/05/26 12:54:08;;;;;;;;;;;;;;;;;;4435515;32;19951;-72
2023/05/26 12:56:33;;;;;;;;;;;;;;;;;;4436772;32;19975;-71
2023/05/26 12:58:58;;;;;;;;;;;;;;;;;;4435417;32;19948;-70
2023/05/26 13:01:23;;;;;;;;;;;;;;;;;;4436349;32;19936;-70
2023/05/26 13:03:48;;;;;;;;;;;;;;;;;;4435919;32;19937;-74
2023/05/26 13:06:14;;;;;;;;;;;;;;;;;;4435372;32;20341;-71
2023/05/26 13:08:39;;;;;;;;;;;;;;;;;;4435920;32;19944;-72
2023/05/26 13:11:04;;;;;;;;;;;;;;;;;;4434808;32;19937;-71
2023/05/26 13:13:29;;;;;;;;;;;;;;;;;;4435491;32;19944;-74
2023/05/26 13:15:54;;;;;;;;;;;;;;;;;;4435179;32;19957;-73
2023/05/26 13:18:19;;;;;;;;;;;;;;;;;;4436648;32;19941;-71
2023/05/26 13:20:45;;;;;;;;;;;;;;;;;;4436576;32;19948;-71
2023/05/26 13:23:10;;;;;;;;;;;;;;;;;;4436459;32;20289;-71
2023/05/26 13:25:35;;;;;;;;;;;;;;;;;;4436161;32;19977;-74
2023/05/26 13:28:00;;;;;;;;;;;;;;;;;;4434797;32;19947;-72
2023/05/26 13:30:27;;;;;;;;;;;;;;;;;;4435313;32;19945;-70
2023/05/26 13:32:52;;;;;;;;;;;;;;;;;;4434875;32;19929;-72
2023/05/26 13:35:17;;;;;;;;;;;;;;;;;;4434909;32;19977;-71
2023/05/26 13:37:42;;;;;;;;;;;;;;;;;;4434812;32;19951;-71
2023/05/26 13:40:07;;;;;;;;;;;;;;;;;;4435168;32;20000;-71
2023/05/26 13:42:34;;;;;;;;;;;;;;;;;;4435221;32;20258;-72
2023/05/26 13:44:59;;;;;;;;;;;;;;;;;;4434619;32;19937;-71
2023/05/26 13:47:25;;;;;;;;;;;;;;;;;;4435959;32;19992;-72
2023/05/26 13:49:50;;;;;;;;;;;;;;;;;;4434740;32;19940;-70
2023/05/26 13:52:15;;;;;;;;;;;;;;;;;;4434551;32;19937;-71
2023/05/26 13:54:40;;;;;;;;;;;;;;;;;;4434733;32;19968;-71
2023/05/26 13:57:07;;;;;;;;;;;;;;;;;;4436199;32;19948;-71
2023/05/26 13:59:32;;;;;;;;;;;;;;;;;;4436321;32;20003;-71
2023/05/26 14:01:57;;;;;;;;;;;;;;;;;;4435970;32;19969;-72
2023/05/26 14:04:25;;;;;;;;;;;;;;;;;;4434405;32;20388;-72
2023/05/26 14:06:50;;;;;;;;;;;;;;;;;;4436041;32;20356;-74
2023/05/26 14:09:15;;;;;;;;;;;;;;;;;;4434487;32;20318;-72
2023/05/26 14:11:40;;;;;;;;;;;;;;;;;;4434532;32;19953;-72
2023/05/26 14:14:06;;;;;;;;;;;;;;;;;;4434640;32;20284;-70
2023/05/26 14:16:31;;;;;;;;;;;;;;;;;;4434978;32;19945;-69
2023/05/26 14:18:56;;;;;;;;;;;;;;;;;;4435850;32;19944;-70
2023/05/26 14:21:21;;;;;;;;;;;;;;;;;;4436262;32;19990;-71
2023/05/26 14:23:46;;;;;;;;;;;;;;;;;;4434567;32;19951;-71
2023/05/26 14:26:11;;;;;;;;;;;;;;;;;;4434474;32;19937;-71
2023/05/26 14:28:37;;;;;;;;;;;;;;;;;;4434484;32;19952;-70
2023/05/26 14:31:02;;;;;;;;;;;;;;;;;;4435573;32;19988;-72
2023/05/26 14:33:27;;;;;;;;;;;;;;;;;;4435846;32;19940;-71
2023/05/26 14:35:54;;;;;;;;;;;;;;;;;;4434133;32;20304;-72
2023/05/26 14:38:19;;;;;;;;;;;;;;;;;;4434603;32;19933;-71
2023/05/26 14:40:44;;;;;;;;;;;;;;;;;;4434880;32;19932;-71
2023/05/26 14:43:09;;;;;;;;;;;;;;;;;;4433710;32;19952;-71
2023/05/26 14:45:35;;;;;;;;;;;;;;;;;;4434214;32;19953;-71
2023/05/26 14:48:00;;;;;;;;;;;;;;;;;;4434036;32;19978;-72
2023/05/26 14:50:25;;;;;;;;;;;;;;;;;;4436833;32;19937;-71
2023/05/26 14:52:50;;;;;;;;;;;;;;;;;;4437444;32;19947;-72
2023/05/26 14:55:15;;;;;;;;;;;;;;;;;;4437342;32;19940;-72
2023/05/26 14:57:42;;;;;;;;;;;;;;;;;;4438438;32;19932;-72
2023/05/26 15:00:08;;;;;;;;;;;;;;;;;;4436747;32;19992;-71
2023/05/26 15:02:33;;;;;;;;;;;;;;;;;;4438793;32;19996;-72
2023/05/26 15:04:58;;;;;;;;;;;;;;;;;;4436718;32;19941;-73
2023/05/26 15:07:23;;;;;;;;;;;;;;;;;;4436628;32;19987;-72
2023/05/26 15:09:48;;;;;;;;;;;;;;;;;;4438638;32;20012;-71
2023/05/26 15:12:13;;;;;;;;;;;;;;;;;;4437234;32;20358;-72
2023/05/26 15:14:38;;;;;;;;;;;;;;;;;;4437047;32;19960;-72
2023/05/26 15:17:04;;;;;;;;;;;;;;;;;;4438666;32;19974;-71
2023/05/26 15:19:29;;;;;;;;;;;;;;;;;;4437151;32;20018;-73
2023/05/26 15:21:54;;;;;;;;;;;;;;;;;;4437318;32;19984;-72
2023/05/26 15:24:19;;;;;;;;;;;;;;;;;;4436794;32;19948;-72
2023/05/26 15:26:45;;;;;;;;;;;;;;;;;;4437179;32;20220;-72
2023/05/26 15:29:11;;;;;;;;;;;;;;;;;;4437349;32;19947;-73
2023/05/26 15:31:36;;;;;;;;;;;;;;;;;;4437398;32;19941;-72
2023/05/26 15:34:02;;;;;;;;;;;;;;;;;;4436711;32;19966;-73
2023/05/26 15:36:27;;;;;;;;;;;;;;;;;;4436361;32;19941;-71
2023/05/26 15:38:52;;;;;;;;;;;;;;;;;;4437561;32;19975;-72
2023/05/26 15:41:17;;;;;;;;;;;;;;;;;;4438357;32;20294;-72
2023/05/26 15:43:42;;;;;;;;;;;;;;;;;;4436719;32;20302;-73
2023/05/26 15:46:07;;;;;;;;;;;;;;;;;;4438207;32;20226;-71
2023/05/26 15:48:32;;;;;;;;;;;;;;;;;;4436280;32;19941;-72
2023/05/26 15:50:58;;;;;;;;;;;;;;;;;;4435910;32;20003;-72
2023/05/26 15:53:23;;;;;;;;;;;;;;;;;;4435939;32;19991;-71
2023/05/26 15:55:48;;;;;;;;;;;;;;;;;;4436566;32;19982;-70
2023/05/26 15:58:13;;;;;;;;;;;;;;;;;;4435771;32;20005;-72
2023/05/26 16:00:38;;;;;;;;;;;;;;;;;;4436695;32;20266;-71
2023/05/26 16:03:03;;;;;;;;;;;;;;;;;;4438266;32;19972;-73
2023/05/26 16:05:28;;;;;;;;;;;;;;;;;;4435389;32;19988;-72
2023/05/26 16:07:53;;;;;;;;;;;;;;;;;;4436325;32;19979;-71
2023/05/26 16:10:18;;;;;;;;;;;;;;;;;;4437301;32;19953;-72
2023/05/26 16:12:45;;;;;;;;;;;;;;;;;;4437087;32;20258;-73
2023/05/26 16:15:10;;;;;;;;;;;;;;;;;;4435450;32;20277;-72
2023/05/26 16:17:35;;;;;;;;;;;;;;;;;;4435054;32;19937;-72
2023/05/26 16:20:00;;;;;;;;;;;;;;;;;;4434720;32;19937;-72
2023/05/26 16:22:25;;;;;;;;;;;;;;;;;;4434575;32;19981;-72
2023/05/26 16:24:50;;;;;;;;;;;;;;;;;;4434707;32;20001;-72
2023/05/26 16:27:15;;;;;;;;;;;;;;;;;;4436392;32;19941;-73
2023/05/26 16:29:41;;;;;;;;;;;;;;;;;;4435955;32;19937;-71
2023/05/26 16:32:06;;;;;;;;;;;;;;;;;;4436725;32;19952;-72